createdAt,value
2018-07-28T04:57:39.074Z,52.90
2018-07-28T05:00:28.392Z,52.90
2018-07-28T05:03:33.554Z,53.10
2018-07-28T05:09:08.917Z,53.20
2018-07-28T05:11:42.397Z,53.30
2018-07-28T05:17:20.668Z,53.20
2018-07-28T05:20:01.432Z,53.20
2018-07-28T05:31:25.973Z,53.40
2018-07-28T05:33:58.277Z,53.50
2018-07-28T05:36:29.813Z,53.30
2018-07-28T05:39:00.834Z,53.40
2018-07-28T06:05:06.323Z,53.90
2018-07-28T06:07:40.591Z,53.90
2018-07-28T06:21:44.580Z,54.50
2018-07-28T06:24:13.380Z,54.60
2018-07-28T06:26:53.910Z,54.30
2018-07-28T06:29:22.578Z,54.20
2018-07-28T06:31:54.771Z,54.20
2018-07-28T06:52:37.319Z,56.20
2018-07-28T07:01:18.932Z,57.10
2018-07-28T07:03:50.184Z,57.50
2018-07-28T07:07:14.084Z,58.00
2018-07-28T07:09:48.847Z,58.30
2018-07-28T07:12:21.111Z,58.60
2018-07-28T07:14:50.438Z,58.90
2018-07-28T07:17:41.819Z,59.00
2018-07-28T07:20:11.131Z,58.70
2018-07-28T07:26:01.769Z,59.20
2018-07-28T07:45:41.554Z,60.40
2018-07-28T07:48:10.284Z,60.40
2018-07-28T07:50:40.092Z,60.00
2018-07-28T07:53:08.666Z,59.90
2018-07-28T07:55:37.592Z,60.00
2018-07-28T07:58:08.350Z,59.90
2018-07-28T08:00:37.172Z,60.30
2018-07-28T08:03:06.796Z,60.00
2018-07-28T08:05:35.657Z,60.10
2018-07-28T08:08:04.230Z,60.10
2018-07-28T08:10:32.796Z,60.20
2018-07-28T08:13:13.475Z,60.30
2018-07-28T09:05:40.717Z,61.70
2018-07-28T09:11:05.876Z,61.40
2018-07-28T12:33:33.179Z,55.50
2018-07-28T13:13:57.733Z,55.20
2018-07-28T13:28:46.621Z,56.90
2018-07-28T18:07:08.320Z,66.20
2018-07-28T18:12:58.015Z,65.80
2018-07-28T18:15:29.843Z,65.80
2018-07-28T18:17:58.472Z,65.90
2018-07-28T18:20:28.217Z,65.60
2018-07-28T18:23:06.971Z,66.10
2018-07-28T18:46:41.877Z,66.50
2018-07-28T18:58:20.329Z,65.90
2018-07-28T19:24:59.115Z,66.30
2018-07-28T19:27:34.323Z,66.40
2018-07-28T19:30:30.497Z,66.50
2018-07-28T19:33:04.787Z,66.50
2018-07-28T19:44:31.187Z,67.00
2018-07-28T19:47:15.084Z,67.00
2018-07-28T19:49:50.575Z,67.00
2018-07-28T19:52:31.370Z,67.20
2018-07-28T19:58:04.866Z,67.40
2018-07-28T20:18:24.985Z,68.00
2018-07-28T20:21:22.619Z,67.50
2018-07-28T20:24:07.272Z,68.10
2018-07-28T20:26:38.686Z,68.20
2018-07-28T21:11:11.400Z,69.50
2018-07-28T21:13:47.680Z,69.70
2018-07-28T21:36:30.090Z,70.00
2018-07-28T21:39:07.313Z,70.20
2018-07-28T21:41:52.747Z,70.20
2018-07-28T21:44:27.336Z,70.30
2018-07-28T21:47:05.946Z,70.50
2018-07-28T21:49:36.900Z,70.40
2018-07-28T21:52:11.319Z,70.70
2018-07-28T22:03:36.515Z,70.60
2018-07-28T22:06:05.664Z,70.70
2018-07-28T22:08:53.592Z,71.00
2018-07-28T22:11:35.488Z,71.10
2018-07-28T22:14:04.652Z,71.20
2018-07-28T22:16:33.762Z,71.10
2018-07-28T22:36:07.814Z,71.50
2018-07-28T22:38:37.128Z,71.50
2018-07-28T22:41:05.796Z,71.40
2018-07-28T22:43:35.478Z,71.40
2018-07-28T22:46:04.092Z,71.40
2018-07-28T22:48:32.675Z,71.60
2018-07-28T22:51:01.757Z,71.80
2018-07-28T22:53:30.560Z,72.20
2018-07-28T22:55:59.784Z,72.10
2018-07-28T22:58:36.354Z,72.30
2018-07-28T23:03:33.679Z,72.20
2018-07-28T23:09:13.473Z,72.10
2018-07-28T23:11:42.127Z,71.90
2018-07-28T23:14:17.793Z,72.10
2018-07-28T23:16:46.837Z,72.10
2018-07-28T23:19:28.194Z,72.20
2018-07-28T23:21:58.580Z,72.50
2018-07-28T23:24:27.367Z,72.50
2018-07-28T23:26:56.164Z,72.50
2018-07-28T23:29:25.934Z,72.50
2018-07-28T23:32:00.135Z,72.70
2018-07-28T23:34:31.765Z,72.70
2018-07-28T23:37:01.215Z,72.50
2018-07-28T23:39:30.037Z,72.70
2018-07-28T23:42:00.368Z,72.80
2018-07-28T23:44:29.567Z,72.90
2018-07-28T23:58:32.274Z,72.90
